createdAt,value
2023-04-29T00:01:14.365Z,31.15
2023-04-29T00:03:42.687Z,30.30
2023-04-29T00:06:12.066Z,28.83
2023-04-29T00:08:40.082Z,29.40
2023-04-29T00:11:07.873Z,28.80
2023-04-29T00:13:36.183Z,28.85
2023-04-29T00:16:04.012Z,30.67
2023-04-29T00:18:33.882Z,30.30
2023-04-29T00:21:02.877Z,29.98
2023-04-29T00:23:30.624Z,31.20
2023-04-29T00:25:58.408Z,31.15
2023-04-29T00:28:26.858Z,30.98
2023-04-29T00:30:55.791Z,28.95
2023-04-29T00:33:23.611Z,26.75
2023-04-29T00:35:53.492Z,25.00
2023-04-29T00:38:21.402Z,25.17
2023-04-29T00:40:49.559Z,25.02
2023-04-29T00:43:17.826Z,22.83
2023-04-29T00:45:46.988Z,23.90
2023-04-29T00:48:15.855Z,24.30
2023-04-29T00:50:44.538Z,22.45
2023-04-29T00:53:14.715Z,23.53
2023-04-29T00:55:45.566Z,24.65
2023-04-29T00:58:13.550Z,24.20
2023-04-29T01:00:44.193Z,23.27
2023-04-29T01:03:12.798Z,24.08
2023-04-29T01:05:40.923Z,22.43
2023-04-29T01:08:27.612Z,22.95
2023-04-29T01:11:02.752Z,24.58
2023-04-29T01:13:33.394Z,23.67
2023-04-29T01:16:04.742Z,23.63
2023-04-29T01:21:26.520Z,23.55
2023-04-29T01:23:57.740Z,23.35
2023-04-29T01:26:26.955Z,21.02
2023-04-29T01:29:03.070Z,22.98
2023-04-29T01:31:37.757Z,22.08
2023-04-29T01:34:11.861Z,22.95
2023-04-29T01:36:54.293Z,23.15
2023-04-29T01:39:35.288Z,22.75
2023-04-29T01:42:16.816Z,22.85
2023-04-29T01:44:46.019Z,23.67
2023-04-29T01:47:16.071Z,23.05
2023-04-29T01:49:47.263Z,23.15
2023-04-29T01:52:15.050Z,24.42
2023-04-29T01:54:44.313Z,26.58
2023-04-29T01:57:12.880Z,26.40
2023-04-29T01:59:40.802Z,27.73
2023-04-29T02:02:08.731Z,28.40
2023-04-29T02:04:37.189Z,27.73
2023-04-29T02:07:05.092Z,31.17
2023-04-29T02:09:32.958Z,29.80
2023-04-29T02:12:05.166Z,31.33
2023-04-29T02:14:35.599Z,31.15
2023-04-29T02:17:05.882Z,31.60
2023-04-29T02:19:33.663Z,33.50
2023-04-29T02:22:01.473Z,31.42
2023-04-29T02:24:29.584Z,30.73
2023-04-29T02:26:57.349Z,32.42
2023-04-29T02:29:30.067Z,31.83
2023-04-29T02:31:57.844Z,30.95
2023-04-29T02:34:25.639Z,29.10
2023-04-29T02:36:53.594Z,27.63
2023-04-29T02:39:21.619Z,30.35
2023-04-29T02:41:49.396Z,27.60
2023-04-29T02:44:17.935Z,25.88
2023-04-29T02:46:47.159Z,24.60
2023-04-29T02:49:14.989Z,24.73
2023-04-29T02:51:43.229Z,23.88
2023-04-29T02:54:11.375Z,24.60
2023-04-29T02:56:39.135Z,22.77
2023-04-29T02:59:07.386Z,21.48
2023-04-29T03:01:35.209Z,22.17
2023-04-29T03:04:04.730Z,21.00
2023-04-29T03:09:00.679Z,19.92
2023-04-29T03:11:28.982Z,19.08
2023-04-29T03:13:57.898Z,19.63
2023-04-29T03:16:25.938Z,19.90
2023-04-29T03:18:53.771Z,20.50
2023-04-29T03:21:23.354Z,17.83
2023-04-29T03:23:51.104Z,15.65
2023-04-29T03:26:18.917Z,15.77
2023-04-29T03:28:47.710Z,16.10
2023-04-29T03:31:16.626Z,16.60
2023-04-29T03:33:44.724Z,16.65
2023-04-29T03:36:13.814Z,18.08
2023-04-29T03:38:43.015Z,18.92
2023-04-29T03:41:10.896Z,19.05
2023-04-29T03:43:39.375Z,19.73
2023-04-29T03:46:07.550Z,17.90
2023-04-29T03:48:35.368Z,15.35
2023-04-29T03:51:03.830Z,13.32
2023-04-29T03:53:32.842Z,12.27
2023-04-29T03:56:02.024Z,10.57
2023-04-29T03:58:30.277Z,10.80
2023-04-29T04:00:58.087Z,10.65
2023-04-29T04:03:27.760Z,10.93
2023-04-29T04:05:56.111Z,11.70
2023-04-29T04:08:24.175Z,13.20
2023-04-29T04:10:52.001Z,15.77
2023-04-29T04:13:21.788Z,15.77
2023-04-29T04:15:51.868Z,20.02
2023-04-29T04:18:19.654Z,19.38
2023-04-29T04:20:48.078Z,20.63
2023-04-29T04:23:15.957Z,22.67
2023-04-29T04:25:47.478Z,22.73
2023-04-29T04:28:16.415Z,22.83
2023-04-29T04:30:47.958Z,24.85
2023-04-29T04:33:16.520Z,24.00
2023-04-29T04:35:44.482Z,24.30
2023-04-29T04:38:12.532Z,23.48
2023-04-29T04:40:42.554Z,24.13
2023-04-29T04:43:10.534Z,24.17
2023-04-29T04:45:38.390Z,25.25
2023-04-29T04:48:08.881Z,25.45
2023-04-29T04:50:36.701Z,26.55
2023-04-29T04:53:04.481Z,24.15
2023-04-29T04:55:34.069Z,24.90
2023-04-29T04:58:01.860Z,23.95
2023-04-29T05:00:29.641Z,25.20
2023-04-29T05:02:58.517Z,24.38
2023-04-29T05:05:27.992Z,22.88
2023-04-29T05:07:55.815Z,22.48
2023-04-29T05:10:27.003Z,20.90
2023-04-29T05:12:54.757Z,21.13
2023-04-29T05:15:22.510Z,19.55
2023-04-29T05:17:51.020Z,21.27
2023-04-29T05:20:20.387Z,21.00
2023-04-29T05:22:49.554Z,19.80
2023-04-29T05:25:18.046Z,20.27
2023-04-29T05:27:45.840Z,21.85
2023-04-29T05:30:14.079Z,21.23
2023-04-29T05:32:42.395Z,19.52
2023-04-29T05:35:10.649Z,18.50
2023-04-29T05:37:38.456Z,18.30
2023-04-29T05:40:09.410Z,16.77
2023-04-29T05:42:37.434Z,16.55
2023-04-29T05:45:06.061Z,17.52
2023-04-29T05:47:35.121Z,18.73
2023-04-29T05:50:03.928Z,17.40
2023-04-29T05:52:31.792Z,12.30
2023-04-29T05:54:59.793Z,11.63
2023-04-29T05:57:28.913Z,16.98
2023-04-29T05:59:57.507Z,17.63
2023-04-29T06:02:25.910Z,17.27
2023-04-29T06:04:54.039Z,17.45
2023-04-29T06:07:22.534Z,18.58
2023-04-29T06:09:50.964Z,18.00
2023-04-29T06:12:18.908Z,16.63
2023-04-29T06:14:48.009Z,17.95
2023-04-29T06:17:16.300Z,18.25
2023-04-29T06:19:44.056Z,18.92
2023-04-29T06:22:13.381Z,19.42
2023-04-29T06:24:41.600Z,19.30
2023-04-29T06:27:09.385Z,18.92
2023-04-29T06:29:37.457Z,19.55
2023-04-29T06:32:07.304Z,20.65
2023-04-29T06:34:36.070Z,21.65
2023-04-29T06:37:04.698Z,19.70
2023-04-29T06:39:32.457Z,21.23
2023-04-29T06:42:00.234Z,20.83
2023-04-29T06:44:27.965Z,20.30
2023-04-29T06:46:56.212Z,20.92
2023-04-29T06:49:25.368Z,20.30
2023-04-29T06:51:54.511Z,20.23
2023-04-29T06:54:22.904Z,21.08
2023-04-29T06:56:50.960Z,20.15
2023-04-29T06:59:18.717Z,20.48
2023-04-29T07:01:49.004Z,21.02
2023-04-29T07:04:17.491Z,19.60
2023-04-29T07:06:47.167Z,21.25
2023-04-29T07:09:15.316Z,20.55
2023-04-29T07:11:43.464Z,21.15
2023-04-29T07:14:11.759Z,20.65
2023-04-29T07:16:39.493Z,21.13
2023-04-29T07:19:07.618Z,20.80
2023-04-29T07:21:36.377Z,22.17
2023-04-29T07:24:06.551Z,20.73
2023-04-29T07:26:34.265Z,20.17
2023-04-29T07:29:02.184Z,20.75
2023-04-29T07:31:30.269Z,20.45
2023-04-29T07:33:59.532Z,21.67
2023-04-29T07:36:28.498Z,21.15
2023-04-29T07:38:56.505Z,21.08
2023-04-29T07:41:25.589Z,23.45
2023-04-29T07:43:53.487Z,21.67
2023-04-29T07:46:21.212Z,23.23
2023-04-29T07:48:48.967Z,21.90
2023-04-29T07:51:17.001Z,20.27
2023-04-29T07:53:44.765Z,22.00
2023-04-29T07:56:12.783Z,22.63
2023-04-29T07:58:42.239Z,24.20
2023-04-29T08:01:11.806Z,22.50
2023-04-29T08:06:10.330Z,22.92
2023-04-29T08:08:38.299Z,23.85
2023-04-29T08:11:06.794Z,23.85
2023-04-29T08:13:34.835Z,25.00
2023-04-29T08:16:04.042Z,24.30
2023-04-29T08:18:31.852Z,24.00
2023-04-29T08:20:59.657Z,23.67
2023-04-29T08:23:27.458Z,24.00
2023-04-29T08:25:55.938Z,24.95
2023-04-29T08:28:24.101Z,24.90
2023-04-29T08:30:51.980Z,25.20
2023-04-29T08:33:21.245Z,25.08
2023-04-29T08:35:49.759Z,24.05
2023-04-29T08:38:17.536Z,23.52
2023-04-29T08:40:46.536Z,21.60
2023-04-29T08:43:16.070Z,22.67
2023-04-29T08:45:44.394Z,23.75
2023-04-29T08:48:12.622Z,22.58
2023-04-29T08:50:43.353Z,22.00
2023-04-29T08:53:12.638Z,22.67
2023-04-29T08:55:43.431Z,22.48
2023-04-29T08:58:12.469Z,20.05
2023-04-29T09:00:41.671Z,20.38
2023-04-29T09:03:21.089Z,21.35
2023-04-29T09:05:54.998Z,21.02
2023-04-29T09:08:24.050Z,19.65
2023-04-29T09:10:52.766Z,21.30
2023-04-29T09:13:27.954Z,20.15
2023-04-29T09:15:56.128Z,20.38
2023-04-29T09:18:43.399Z,22.10
2023-04-29T09:21:19.628Z,21.45
2023-04-29T09:23:50.398Z,21.83
2023-04-29T09:26:18.493Z,21.73
2023-04-29T09:28:47.719Z,22.27
2023-04-29T09:31:16.144Z,21.92
2023-04-29T09:33:54.516Z,21.60
2023-04-29T09:36:42.115Z,22.05
2023-04-29T09:39:12.665Z,22.95
2023-04-29T09:41:59.242Z,21.63
2023-04-29T09:44:31.291Z,22.23
2023-04-29T09:47:03.412Z,21.92
2023-04-29T09:49:35.612Z,22.35
2023-04-29T09:52:06.600Z,22.08
2023-04-29T09:54:36.811Z,21.58
2023-04-29T09:57:06.395Z,21.90
2023-04-29T10:04:41.834Z,22.48
2023-04-29T10:07:15.938Z,22.38
2023-04-29T10:09:46.504Z,21.00
2023-04-29T10:12:17.827Z,22.45
2023-04-29T10:14:51.933Z,21.10
2023-04-29T10:17:26.593Z,21.10
2023-04-29T10:19:59.707Z,20.95
2023-04-29T10:22:36.922Z,21.30
2023-04-29T10:25:08.479Z,20.48
2023-04-29T10:27:38.848Z,20.63
2023-04-29T10:30:11.356Z,20.83
2023-04-29T10:32:50.604Z,18.45
2023-04-29T10:35:20.458Z,16.55
2023-04-29T10:37:50.439Z,15.60
2023-04-29T10:40:23.182Z,16.38
2023-04-29T10:42:53.307Z,16.20
2023-04-29T10:45:26.848Z,16.27
2023-04-29T10:48:15.537Z,16.45
2023-04-29T10:51:03.396Z,17.33
2023-04-29T10:53:33.148Z,18.10
2023-04-29T10:56:08.975Z,18.23
2023-04-29T10:58:45.631Z,18.33
2023-04-29T11:01:15.343Z,17.08
2023-04-29T11:03:59.255Z,17.60
2023-04-29T11:06:39.721Z,17.65
2023-04-29T11:09:13.145Z,17.20
2023-04-29T11:11:49.760Z,17.67
2023-04-29T11:14:23.710Z,17.67
2023-04-29T11:16:54.233Z,15.70
2023-04-29T11:19:22.068Z,16.83
2023-04-29T11:21:50.436Z,16.63
2023-04-29T11:24:19.835Z,17.13
2023-04-29T11:26:48.911Z,16.60
2023-04-29T11:29:19.936Z,15.02
2023-04-29T11:31:47.796Z,16.10
2023-04-29T11:34:15.806Z,13.85
2023-04-29T11:36:45.818Z,15.38
2023-04-29T11:39:17.967Z,15.77
2023-04-29T11:41:47.809Z,15.88
2023-04-29T11:44:15.568Z,15.52
2023-04-29T11:46:43.413Z,16.10
2023-04-29T11:49:11.797Z,14.90
2023-04-29T11:51:39.628Z,13.40
2023-04-29T11:54:08.698Z,13.80
2023-04-29T11:56:39.540Z,13.02
2023-04-29T11:59:09.022Z,14.73
2023-04-29T12:01:37.249Z,14.10
2023-04-29T12:04:07.752Z,14.45
2023-04-29T12:06:35.660Z,14.25
2023-04-29T12:09:04.663Z,14.35
2023-04-29T12:11:32.677Z,14.93
2023-04-29T12:14:02.565Z,14.63
2023-04-29T12:16:32.788Z,13.68
2023-04-29T12:19:01.191Z,12.75
2023-04-29T12:21:29.779Z,13.30
2023-04-29T12:24:01.175Z,13.50
2023-04-29T12:26:30.214Z,13.35
2023-04-29T12:28:59.202Z,13.63
2023-04-29T12:31:37.143Z,11.25
2023-04-29T12:34:09.165Z,10.50
2023-04-29T12:36:38.225Z,10.95
2023-04-29T12:39:09.506Z,9.63
2023-04-29T12:41:39.257Z,9.10
2023-04-29T12:44:07.928Z,9.00
2023-04-29T12:46:38.188Z,9.60
2023-04-29T12:49:09.512Z,9.38
2023-04-29T12:51:37.735Z,10.57
2023-04-29T12:54:07.296Z,10.88
2023-04-29T12:59:08.414Z,8.88
2023-04-29T13:01:38.288Z,10.00
2023-04-29T13:04:09.012Z,9.57
2023-04-29T13:06:40.063Z,9.45
2023-04-29T13:09:17.865Z,10.52
2023-04-29T13:11:47.259Z,10.47
2023-04-29T13:14:15.626Z,11.20
2023-04-29T13:16:45.211Z,10.70
2023-04-29T13:19:30.468Z,10.15
2023-04-29T13:22:01.595Z,11.15
2023-04-29T13:24:30.034Z,10.73
2023-04-29T13:26:58.182Z,11.10
2023-04-29T13:29:25.977Z,10.73
2023-04-29T13:31:55.662Z,11.07
2023-04-29T13:34:23.549Z,10.82
2023-04-29T13:36:51.333Z,10.18
2023-04-29T13:39:20.382Z,10.93
2023-04-29T13:41:48.329Z,9.98
2023-04-29T13:44:27.243Z,10.68
2023-04-29T13:47:02.773Z,10.20
2023-04-29T13:52:50.569Z,10.27
2023-04-29T13:55:25.895Z,11.73
2023-04-29T13:58:36.379Z,9.30
2023-04-29T14:05:33.363Z,9.65
2023-04-29T14:08:02.034Z,10.13
2023-04-29T14:10:29.856Z,9.65
2023-04-29T14:12:57.628Z,8.10
2023-04-29T14:15:25.977Z,10.65
2023-04-29T14:17:55.164Z,10.60
2023-04-29T14:20:24.497Z,9.98
2023-04-29T14:22:55.009Z,9.68
2023-04-29T14:25:22.756Z,9.77
2023-04-29T14:27:50.538Z,8.75
2023-04-29T14:30:18.817Z,10.27
2023-04-29T14:32:47.381Z,10.93
2023-04-29T14:35:15.281Z,10.63
2023-04-29T14:37:44.861Z,9.65
2023-04-29T14:42:40.452Z,9.60
2023-04-29T14:45:09.349Z,10.15
2023-04-29T14:47:37.220Z,11.43
2023-04-29T14:50:05.630Z,10.48
2023-04-29T14:52:33.871Z,10.75
2023-04-29T14:55:03.044Z,10.32
2023-04-29T14:57:30.901Z,10.65
2023-04-29T14:59:58.720Z,10.88
2023-04-29T15:02:26.734Z,10.90
2023-04-29T15:04:54.830Z,11.02
2023-04-29T15:07:23.596Z,11.35
2023-04-29T15:09:51.581Z,10.65
2023-04-29T15:12:22.212Z,10.05
2023-04-29T15:14:50.890Z,11.10
2023-04-29T15:17:18.750Z,11.17
2023-04-29T15:19:46.880Z,10.35
2023-04-29T15:22:15.201Z,10.27
2023-04-29T15:24:42.994Z,10.25
2023-04-29T15:27:11.095Z,10.20
2023-04-29T15:29:42.136Z,10.05
2023-04-29T15:32:10.636Z,9.90
2023-04-29T15:34:38.602Z,11.00
2023-04-29T15:37:07.305Z,10.85
2023-04-29T15:39:35.097Z,10.83
2023-04-29T15:42:03.810Z,10.82
2023-04-29T15:44:32.188Z,10.20
2023-04-29T15:47:01.388Z,9.57
2023-04-29T15:49:29.226Z,10.15
2023-04-29T15:51:57.435Z,10.20
2023-04-29T15:54:25.207Z,9.93
2023-04-29T15:56:53.249Z,10.07
2023-04-29T15:59:21.523Z,9.55
2023-04-29T16:01:49.436Z,9.95
2023-04-29T16:04:18.758Z,9.48
2023-04-29T16:06:47.486Z,9.43
2023-04-29T16:09:15.451Z,9.60
2023-04-29T16:11:43.557Z,9.43
2023-04-29T16:14:11.976Z,9.63
2023-04-29T16:16:39.806Z,10.00
2023-04-29T16:19:07.782Z,9.82
2023-04-29T16:21:36.954Z,8.55
2023-04-29T16:24:05.641Z,8.82
2023-04-29T16:26:33.793Z,8.53
2023-04-29T16:29:01.778Z,9.10
2023-04-29T16:31:29.585Z,9.57
2023-04-29T16:33:58.090Z,8.88
2023-04-29T16:36:26.484Z,9.77
2023-04-29T16:38:55.718Z,8.50
2023-04-29T16:41:24.059Z,8.57
2023-04-29T16:43:52.065Z,7.50
2023-04-29T16:46:20.043Z,9.25
2023-04-29T16:48:50.837Z,7.78
2023-04-29T16:51:18.924Z,8.18
2023-04-29T16:53:46.746Z,8.30
2023-04-29T16:56:16.244Z,8.05
2023-04-29T16:58:44.463Z,9.25
2023-04-29T17:01:12.457Z,8.40
2023-04-29T17:03:40.544Z,8.05
2023-04-29T17:06:08.647Z,8.25
2023-04-29T17:08:36.683Z,8.57
2023-04-29T17:11:06.240Z,9.77
2023-04-29T17:13:35.454Z,8.60
2023-04-29T17:16:03.276Z,8.50
2023-04-29T17:18:31.136Z,8.77
2023-04-29T17:20:59.022Z,8.82
2023-04-29T17:23:26.794Z,9.95
2023-04-29T17:25:56.374Z,10.25
2023-04-29T17:30:55.843Z,9.25
2023-04-29T17:33:32.518Z,9.82
2023-04-29T17:36:01.346Z,10.00
2023-04-29T17:38:29.396Z,8.98
2023-04-29T17:40:57.220Z,9.27
2023-04-29T17:43:25.174Z,9.23
2023-04-29T17:45:54.667Z,8.82
2023-04-29T17:50:50.616Z,8.45
2023-04-29T17:53:18.644Z,8.10
2023-04-29T17:55:47.111Z,8.82
2023-04-29T17:58:14.940Z,8.68
2023-04-29T18:00:42.901Z,10.32
2023-04-29T18:03:12.385Z,11.43
2023-04-29T18:05:40.247Z,10.23
2023-04-29T18:08:08.125Z,12.20
2023-04-29T18:10:36.309Z,14.43
2023-04-29T18:13:04.457Z,13.05
2023-04-29T18:15:32.283Z,19.50
2023-04-29T18:18:00.168Z,14.57
2023-04-29T18:20:29.410Z,14.50
2023-04-29T18:22:57.209Z,17.35
2023-04-29T18:25:25.039Z,12.88
2023-04-29T18:27:59.805Z,11.65
2023-04-29T18:30:36.978Z,10.70
2023-04-29T18:33:04.942Z,9.50
2023-04-29T18:35:34.908Z,10.38
2023-04-29T18:38:02.715Z,8.05
2023-04-29T18:40:30.738Z,8.20
2023-04-29T18:42:58.555Z,8.68
2023-04-29T18:45:26.505Z,7.43
2023-04-29T18:47:54.378Z,7.07
2023-04-29T18:50:22.197Z,6.35
2023-04-29T18:52:52.194Z,6.20
2023-04-29T18:55:20.262Z,5.63
2023-04-29T18:57:48.363Z,5.88
2023-04-29T19:00:16.346Z,6.30
2023-04-29T19:02:44.177Z,6.07
2023-04-29T19:05:12.902Z,10.45
2023-04-29T19:07:41.481Z,9.90
2023-04-29T19:10:11.307Z,10.85
2023-04-29T19:12:39.058Z,12.77
2023-04-29T19:15:09.189Z,15.18
2023-04-29T19:17:37.065Z,14.75
2023-04-29T19:20:05.512Z,15.43
2023-04-29T19:22:33.508Z,16.60
2023-04-29T19:25:01.264Z,15.50
2023-04-29T19:27:30.517Z,16.38
2023-04-29T19:29:58.294Z,16.98
2023-04-29T19:32:27.622Z,17.52
2023-04-29T19:34:56.625Z,17.58
2023-04-29T19:37:24.599Z,18.10
2023-04-29T19:39:52.812Z,17.90
2023-04-29T19:42:20.740Z,17.25
2023-04-29T19:44:50.078Z,18.70
2023-04-29T19:47:17.849Z,18.48
2023-04-29T19:49:45.597Z,19.88
2023-04-29T19:52:13.824Z,19.58
2023-04-29T19:54:41.787Z,18.02
2023-04-29T19:57:09.587Z,19.25
2023-04-29T19:59:37.530Z,21.23
2023-04-29T20:02:06.979Z,20.52
2023-04-29T20:04:34.831Z,22.15
2023-04-29T20:07:02.806Z,21.33
2023-04-29T20:09:30.864Z,19.67
2023-04-29T20:11:58.644Z,22.05
2023-04-29T20:14:26.970Z,20.05
2023-04-29T20:16:55.119Z,21.38
2023-04-29T20:19:24.416Z,20.05
2023-04-29T20:21:52.204Z,20.10
2023-04-29T20:24:20.006Z,18.10
2023-04-29T20:26:47.785Z,18.58
2023-04-29T20:29:15.616Z,18.77
2023-04-29T20:31:43.832Z,17.27
2023-04-29T20:34:12.315Z,17.02
2023-04-29T20:36:41.750Z,16.00
2023-04-29T20:39:10.079Z,16.30
2023-04-29T20:41:37.946Z,15.07
2023-04-29T20:44:05.821Z,15.27
2023-04-29T20:46:33.710Z,15.75
2023-04-29T20:49:02.440Z,14.50
2023-04-29T20:51:32.679Z,12.40
2023-04-29T20:54:01.828Z,11.55
2023-04-29T20:56:29.615Z,12.07
2023-04-29T20:58:59.013Z,15.30
2023-04-29T21:01:26.895Z,11.30
2023-04-29T21:03:54.756Z,13.45
2023-04-29T21:06:22.809Z,11.27
2023-04-29T21:08:50.702Z,11.07
2023-04-29T21:11:20.023Z,12.23
2023-04-29T21:13:50.400Z,11.20
2023-04-29T21:16:18.779Z,10.93
2023-04-29T21:18:46.984Z,11.25
2023-04-29T21:21:15.042Z,11.00
2023-04-29T21:23:44.466Z,10.60
2023-04-29T21:26:14.896Z,12.55
2023-04-29T21:28:44.526Z,12.23
2023-04-29T21:33:44.813Z,13.05
2023-04-29T21:36:13.145Z,14.18
2023-04-29T21:38:43.162Z,14.50
2023-04-29T21:41:22.633Z,15.30
2023-04-29T21:43:52.381Z,14.95
2023-04-29T21:48:48.912Z,15.50
2023-04-29T21:51:19.172Z,16.15
2023-04-29T21:53:47.039Z,16.75
2023-04-29T21:56:15.133Z,15.85
2023-04-29T21:58:43.879Z,15.30
2023-04-29T22:01:27.161Z,13.87
2023-04-29T22:03:56.158Z,13.30
2023-04-29T22:06:24.960Z,14.90
2023-04-29T22:08:52.846Z,14.70
2023-04-29T22:11:21.748Z,13.90
2023-04-29T22:13:49.836Z,14.30
2023-04-29T22:16:19.771Z,14.10
2023-04-29T22:18:48.476Z,14.30
2023-04-29T22:21:16.646Z,14.35
2023-04-29T22:23:44.846Z,14.52
2023-04-29T22:26:12.620Z,15.23
2023-04-29T22:28:40.726Z,15.63
2023-04-29T22:31:08.528Z,15.90
2023-04-29T22:33:38.030Z,15.80
2023-04-29T22:36:06.052Z,15.82
2023-04-29T22:38:34.902Z,15.65
2023-04-29T22:41:03.008Z,15.35
2023-04-29T22:43:30.769Z,16.25
2023-04-29T22:45:58.591Z,16.73
2023-04-29T22:48:27.725Z,16.27
2023-04-29T22:51:00.138Z,17.25
2023-04-29T22:53:28.351Z,17.33
2023-04-29T22:55:58.988Z,17.38
2023-04-29T22:58:27.486Z,18.20
2023-04-29T23:00:58.615Z,18.38
2023-04-29T23:03:27.484Z,18.60
2023-04-29T23:06:00.392Z,18.88
2023-04-29T23:08:28.343Z,17.67
2023-04-29T23:10:56.150Z,19.83
2023-04-29T23:13:24.034Z,19.13
2023-04-29T23:15:52.448Z,19.52
2023-04-29T23:18:20.269Z,19.05
2023-04-29T23:20:48.677Z,20.55
2023-04-29T23:23:18.569Z,18.73
2023-04-29T23:25:46.740Z,19.00
2023-04-29T23:28:14.602Z,21.02
2023-04-29T23:30:43.367Z,20.55
2023-04-29T23:33:11.151Z,21.00
2023-04-29T23:35:38.899Z,20.75
2023-04-29T23:38:06.736Z,20.45
2023-04-29T23:40:36.208Z,20.42
2023-04-29T23:43:04.021Z,20.00
2023-04-29T23:45:32.151Z,19.13
2023-04-29T23:47:59.967Z,20.05
2023-04-29T23:50:27.824Z,18.95
2023-04-29T23:52:55.635Z,19.50
2023-04-29T23:55:23.429Z,19.98
2023-04-29T23:57:52.578Z,19.40
